Time;durP1;ratioP1;P1;durP2;ratioP2;P2;SDS_P1;SDS_P2;PMS_P1;PMS_P2;Temp;Humidity;BMP_temperature;BMP_pressure;BME280_temperature;BME280_humidity;BME280_pressure;Samples;Min_cycle;Max_cycle;Signal;HPM_P1;HPM_P2
2024/01/26 00:01:44;;;;;;;2.10;1.40;;;;;;;21.78;29.14;95340.41;6209962;28;110226;-60
2024/01/26 00:04:47;;;;;;;2.20;1.40;;;;;;;21.79;29.37;95350.75;6214394;28;110152;-60
2024/01/26 00:07:52;;;;;;;2.60;1.40;;;;;;;21.78;29.32;95349.19;6235390;27;109143;-60
2024/01/26 00:10:55;;;;;;;2.27;1.33;;;;;;;21.77;29.27;95357.47;6225484;27;110049;-61
2024/01/26 00:13:58;;;;;;;2.10;1.20;;;;;;;21.80;29.31;95362.22;6222844;27;109234;-60
2024/01/26 00:17:01;;;;;;;2.73;1.50;;;;;;;21.80;29.27;95357.66;6229091;28;109101;-60
2024/01/26 00:20:06;;;;;;;2.33;1.10;;;;;;;21.80;28.99;95363.00;6221907;28;109081;-60
2024/01/26 00:23:10;;;;;;;3.03;1.50;;;;;;;21.79;29.17;95360.63;6224808;27;109068;-60
2024/01/26 00:26:13;;;;;;;1.63;0.93;;;;;;;21.79;28.85;95368.63;6225733;27;109593;-60
2024/01/26 00:29:16;;;;;;;2.40;1.50;;;;;;;21.80;29.31;95372.84;6217834;27;110230;-60
2024/01/26 00:32:20;;;;;;;3.00;1.60;;;;;;;21.78;29.21;95381.16;6224665;27;110062;-61
2024/01/26 00:35:22;;;;;;;1.73;1.10;;;;;;;21.78;28.89;95383.03;6205908;28;109058;-61
2024/01/26 00:38:27;;;;;;;1.83;1.17;;;;;;;21.79;29.11;95382.72;6234329;27;110240;-61
2024/01/26 00:41:31;;;;;;;3.17;1.30;;;;;;;21.81;28.96;95387.75;6233006;27;109516;-60
2024/01/26 00:44:34;;;;;;;2.27;1.43;;;;;;;21.79;28.76;95388.06;6234070;27;109083;-60
2024/01/26 00:47:37;;;;;;;2.73;1.67;;;;;;;21.79;29.38;95392.59;6218387;27;109745;-60
2024/01/26 00:50:40;;;;;;;2.70;1.47;;;;;;;21.81;28.81;95391.22;6224908;27;109122;-59
2024/01/26 00:53:45;;;;;;;2.10;1.40;;;;;;;21.79;29.06;95395.25;6210528;28;110248;-59
2024/01/26 00:56:48;;;;;;;2.00;1.40;;;;;;;21.82;29.22;95392.03;6225182;28;109162;-61
2024/01/26 00:59:51;;;;;;;1.43;0.83;;;;;;;21.82;29.32;95392.03;6205139;27;109291;-61
2024/01/26 01:02:54;;;;;;;1.77;1.20;;;;;;;21.81;28.83;95385.88;6215363;27;109211;-60
2024/01/26 01:05:57;;;;;;;2.07;1.43;;;;;;;21.79;28.69;95381.94;6211642;27;109078;-60
2024/01/26 01:09:02;;;;;;;3.90;1.37;;;;;;;21.77;29.20;95382.25;6210734;27;111703;-61
2024/01/26 01:12:06;;;;;;;2.37;1.20;;;;;;;21.81;28.85;95385.09;6223459;28;109149;-61
2024/01/26 01:15:11;;;;;;;2.10;1.53;;;;;;;21.79;29.19;95385.38;6223989;28;111249;-61
2024/01/26 01:18:15;;;;;;;2.00;1.20;;;;;;;21.79;28.73;95387.25;6213467;27;109293;-61
2024/01/26 01:21:18;;;;;;;2.53;1.17;;;;;;;21.78;28.89;95383.81;6211361;27;109284;-61
2024/01/26 01:24:23;;;;;;;2.30;1.30;;;;;;;21.77;29.03;95384.91;6226476;27;109810;-61
2024/01/26 01:27:26;;;;;;;1.90;1.30;;;;;;;21.78;29.08;95378.50;6231312;28;111525;-62
2024/01/26 01:30:29;;;;;;;3.37;1.53;;;;;;;21.78;28.94;95377.69;6234308;28;111419;-61
2024/01/26 01:33:32;;;;;;;2.50;1.50;;;;;;;21.78;28.95;95375.03;6229177;27;109984;-62
2024/01/26 01:36:35;;;;;;;2.37;1.40;;;;;;;21.81;28.62;95382.44;6245960;27;109081;-60
2024/01/26 01:39:40;;;;;;;2.40;1.30;;;;;;;21.83;28.94;95371.50;6224342;27;109026;-61
2024/01/26 01:42:44;;;;;;;2.60;1.20;;;;;;;21.79;28.88;95372.06;6225962;28;109118;-61
2024/01/26 01:45:47;;;;;;;2.23;1.27;;;;;;;21.76;28.87;95367.34;6210643;27;109248;-61
2024/01/26 01:48:50;;;;;;;2.00;1.17;;;;;;;21.78;28.49;95369.72;6227413;27;109089;-62
2024/01/26 01:51:55;;;;;;;1.57;1.00;;;;;;;21.80;28.49;95378.97;6230100;27;109199;-62
2024/01/26 01:55:01;;;;;;;2.77;1.33;;;;;;;21.81;28.77;95374.44;6203198;28;109260;-62
2024/01/26 01:58:05;;;;;;;1.90;1.20;;;;;;;21.79;28.74;95372.06;6214683;27;110285;-62
2024/01/26 02:01:08;;;;;;;2.00;1.20;;;;;;;21.81;29.03;95374.44;6217187;28;109114;-61
2024/01/26 02:04:12;;;;;;;2.10;1.20;;;;;;;21.77;28.45;95360.13;6233031;27;109964;-62
2024/01/26 02:07:15;;;;;;;3.30;1.60;;;;;;;21.80;28.77;95373.66;6217531;27;109090;-60
2024/01/26 02:10:20;;;;;;;1.90;1.20;;;;;;;21.78;28.75;95369.72;6233236;27;109287;-60
2024/01/26 02:13:23;;;;;;;2.07;1.10;;;;;;;21.77;28.75;95368.91;6233466;27;109208;-60
2024/01/26 02:16:26;;;;;;;1.87;1.03;;;;;;;21.77;29.00;95376.13;6226088;27;109238;-61
2024/01/26 02:19:33;;;;;;;2.17;1.07;;;;;;;21.76;28.73;95379.88;6220096;28;109314;-60
2024/01/26 02:22:37;;;;;;;2.07;1.27;;;;;;;21.77;28.62;95376.13;6236196;27;109361;-59
2024/01/26 02:25:41;;;;;;;3.83;1.20;;;;;;;21.80;28.99;95378.19;6225294;27;109235;-60
2024/01/26 02:28:44;;;;;;;2.07;1.27;;;;;;;21.80;29.00;95386.19;6203705;27;110128;-61
2024/01/26 02:31:47;;;;;;;2.40;1.20;;;;;;;21.81;28.49;95393.09;6236902;27;109109;-60
2024/01/26 02:34:50;;;;;;;2.77;1.33;;;;;;;21.79;28.82;95373.94;6219378;27;109130;-60
2024/01/26 02:37:54;;;;;;;1.80;1.20;;;;;;;21.78;28.77;95375.81;6227877;27;109106;-60
2024/01/26 02:40:58;;;;;;;1.90;1.10;;;;;;;21.79;28.54;95382.72;6207340;28;109907;-59
2024/01/26 02:44:01;;;;;;;1.87;1.13;;;;;;;21.79;28.63;95392.59;6236768;27;109173;-60
2024/01/26 02:47:05;;;;;;;2.33;1.27;;;;;;;21.78;28.75;95388.34;6227227;27;110309;-60
2024/01/26 02:50:09;;;;;;;2.50;1.40;;;;;;;21.79;28.44;95393.38;6212467;28;110293;-60
2024/01/26 02:53:12;;;;;;;2.40;1.20;;;;;;;21.79;28.57;95381.94;6224312;28;110362;-59
2024/01/26 02:56:17;;;;;;;3.37;1.20;;;;;;;21.78;28.70;95396.34;6223701;28;110530;-59
2024/01/26 02:59:20;;;;;;;2.10;1.43;;;;;;;21.78;28.72;95393.69;6229050;28;110159;-60
2024/01/26 03:02:24;;;;;;;2.03;1.23;;;;;;;21.80;28.62;95397.63;6231136;27;110833;-59
2024/01/26 03:05:27;;;;;;;3.20;1.40;;;;;;;21.79;28.29;95397.91;6206367;28;109167;-59
2024/01/26 03:08:31;;;;;;;2.70;1.30;;;;;;;21.78;28.56;95391.81;6231063;28;110066;-59
2024/01/26 03:11:40;;;;;;;2.40;1.30;;;;;;;21.76;28.67;95398.53;6236542;27;109104;-59
2024/01/26 03:14:43;;;;;;;1.60;0.90;;;;;;;21.81;28.35;95395.75;6225370;27;109554;-58
2024/01/26 03:17:46;;;;;;;3.23;1.03;;;;;;;21.77;28.63;95395.56;6235510;27;109088;-60
2024/01/26 03:20:49;;;;;;;1.53;0.77;;;;;;;21.79;28.92;95400.59;6236403;27;109312;-61
2024/01/26 03:23:53;;;;;;;1.60;1.00;;;;;;;21.78;28.57;95396.34;6222896;27;110174;-61
2024/01/26 03:26:57;;;;;;;1.93;1.17;;;;;;;21.80;28.63;95396.84;6214359;27;110716;-62
2024/01/26 03:30:00;;;;;;;3.20;1.20;;;;;;;21.80;28.48;95399.50;6211335;28;110078;-62
2024/01/26 03:33:04;;;;;;;2.00;1.00;;;;;;;21.77;28.56;95390.22;6225724;28;109070;-60
2024/01/26 03:36:07;;;;;;;1.80;1.00;;;;;;;21.78;28.36;95396.34;6210709;27;109638;-61
2024/01/26 03:39:15;;;;;;;2.33;1.30;;;;;;;21.78;28.44;95378.50;6231171;27;110171;-60
2024/01/26 03:42:19;;;;;;;1.70;1.13;;;;;;;21.78;28.25;95378.50;6231683;27;110145;-61
2024/01/26 03:45:22;;;;;;;2.23;1.17;;;;;;;21.77;28.35;95384.91;6230250;27;110332;-60
2024/01/26 03:48:25;;;;;;;2.43;1.30;;;;;;;21.79;28.68;95384.59;6215216;28;110563;-60
2024/01/26 03:51:29;;;;;;;2.63;1.27;;;;;;;21.78;28.30;95391.81;6216135;28;109097;-61
2024/01/26 03:54:32;;;;;;;1.50;0.90;;;;;;;21.78;28.75;95399.00;6235020;27;109209;-61
2024/01/26 03:57:37;;;;;;;1.97;1.23;;;;;;;21.81;28.25;95395.75;6234465;27;110049;-61
2024/01/26 04:00:45;;;;;;;2.20;1.17;;;;;;;21.79;28.22;95406.69;6217549;27;108790;-61
2024/01/26 04:03:48;;;;;;;2.00;1.00;;;;;;;21.78;28.60;95409.66;6224636;28;109596;-61
2024/01/26 04:06:51;;;;;;;2.63;1.40;;;;;;;21.78;28.22;95401.66;6218036;28;109086;-61
2024/01/26 04:09:54;;;;;;;1.70;1.00;;;;;;;21.77;28.14;95406.22;6234299;27;109283;-60
2024/01/26 04:12:58;;;;;;;1.30;0.90;;;;;;;21.74;28.56;95401.47;6223576;27;109220;-60
2024/01/26 04:16:01;;;;;;;2.23;1.03;;;;;;;21.79;28.42;95417.34;6231392;27;109203;-61
2024/01/26 04:19:04;;;;;;;1.90;1.20;;;;;;;21.83;28.43;95414.91;6217877;28;109146;-62
2024/01/26 04:22:08;;;;;;;4.27;3.37;;;;;;;21.70;28.94;95415.69;6214953;28;109042;-61
2024/01/26 04:25:11;;;;;;;5.47;4.50;;;;;;;21.73;28.23;95409.75;6229928;28;110119;-61
2024/01/26 04:28:15;;;;;;;5.90;4.60;;;;;;;21.78;28.61;95412.31;6234244;27;109813;-60
2024/01/26 04:31:22;;;;;;;4.53;4.03;;;;;;;21.78;28.52;95410.44;6230200;27;109193;-60
2024/01/26 04:34:25;;;;;;;6.07;4.50;;;;;;;21.80;28.34;95410.16;6223953;27;109701;-60
2024/01/26 04:37:28;;;;;;;5.70;3.70;;;;;;;21.78;28.86;95401.66;6220855;27;110387;-60
2024/01/26 04:40:31;;;;;;;5.20;3.67;;;;;;;21.78;28.35;95412.31;6210524;27;109909;-60
2024/01/26 04:43:35;;;;;;;9.43;7.93;;;;;;;21.52;29.12;95410.13;6225645;27;111107;-62
2024/01/26 04:46:39;;;;;;;9.50;6.20;;;;;;;21.14;29.09;95409.41;6224932;27;110913;-61
2024/01/26 04:49:42;;;;;;;6.83;4.67;;;;;;;20.93;28.68;95402.78;6222621;27;110289;-62
2024/01/26 04:52:45;;;;;;;5.73;4.30;;;;;;;20.82;28.63;95399.47;6224250;27;109588;-61
2024/01/26 04:55:48;;;;;;;9.17;3.90;;;;;;;20.77;28.48;95406.75;6205811;28;110450;-61
2024/01/26 04:58:53;;;;;;;5.50;3.03;;;;;;;20.72;28.40;95401.50;6224209;28;109280;-60
2024/01/26 05:01:56;;;;;;;6.50;3.30;;;;;;;20.68;27.61;95405.84;6230409;27;109079;-61
2024/01/26 05:04:59;;;;;;;4.97;2.93;;;;;;;20.64;27.69;95389.63;6233338;27;109322;-61
2024/01/26 05:08:02;;;;;;;5.60;3.50;;;;;;;20.61;27.89;95387.56;6217633;27;109099;-61
2024/01/26 05:11:06;;;;;;;6.13;3.13;;;;;;;20.88;27.52;95385.03;6209550;28;110154;-61
2024/01/26 05:14:10;;;;;;;7.03;3.07;;;;;;;21.04;28.21;95427.38;6233898;27;109260;-62
2024/01/26 05:17:13;;;;;;;7.70;3.60;;;;;;;20.93;28.50;95379.63;6234175;27;110223;-62
2024/01/26 05:20:17;;;;;;;5.40;2.90;;;;;;;20.93;28.35;95392.16;6223542;28;110226;-62
2024/01/26 05:23:20;;;;;;;8.17;3.43;;;;;;;20.94;28.33;95383.09;6233707;27;108863;-62
2024/01/26 05:26:23;;;;;;;7.50;3.10;;;;;;;20.91;28.38;95397.75;6234114;27;109299;-63
2024/01/26 05:29:27;;;;;;;5.90;2.83;;;;;;;20.92;28.34;95395.88;6232974;27;109002;-62
2024/01/26 05:32:30;;;;;;;6.30;2.77;;;;;;;20.92;28.44;95396.69;6211610;27;109043;-62
2024/01/26 05:35:34;;;;;;;5.47;2.13;;;;;;;20.90;28.46;95412.13;6233933;27;109431;-63
2024/01/26 05:38:37;;;;;;;4.40;2.30;;;;;;;20.86;28.44;95408.47;6233385;27;109164;-63
2024/01/26 05:41:40;;;;;;;4.73;2.77;;;;;;;20.86;28.41;95413.81;6224233;27;109117;-61
2024/01/26 05:44:44;;;;;;;4.33;1.87;;;;;;;20.94;28.01;95417.66;6233084;27;109004;-62
2024/01/26 05:47:48;;;;;;;5.17;2.00;;;;;;;20.96;28.45;95428.81;6233597;27;110170;-62
2024/01/26 05:50:51;;;;;;;4.20;2.13;;;;;;;20.92;28.37;95425.94;6233703;27;109199;-62
2024/01/26 05:53:54;;;;;;;3.50;2.17;;;;;;;;;;6224672;27;110242;-62
2024/01/26 05:56:57;;;;;;;4.77;2.20;;;;;;;20.91;28.16;95424.38;6238278;27;109121;-61
2024/01/26 06:00:02;;;;;;;2.50;1.60;;;;;;;20.89;28.30;95426.53;6236724;27;109227;-62
2024/01/26 06:03:05;;;;;;;4.93;2.20;;;;;;;20.90;28.60;95430.75;6238038;27;110108;-62
2024/01/26 06:06:08;;;;;;;4.70;1.87;;;;;;;20.89;28.63;95442.47;6226927;27;109956;-62
2024/01/26 06:09:12;;;;;;;5.90;2.00;;;;;;;20.89;28.38;95444.34;6237315;27;109154;-62
2024/01/26 06:12:15;;;;;;;3.97;1.80;;;;;;;20.88;28.22;95432.94;6237262;27;109104;-62
2024/01/26 06:15:19;;;;;;;5.10;2.50;;;;;;;20.84;28.24;95439.91;6232490;27;110214;-61
2024/01/26 06:18:23;;;;;;;8.37;2.10;;;;;;;20.82;28.46;95443.91;6232793;27;110338;-61
2024/01/26 06:21:26;;;;;;;3.80;1.50;;;;;;;20.80;28.42;95454.84;6237514;27;109061;-62
2024/01/26 06:24:29;;;;;;;2.97;2.00;;;;;;;20.78;28.31;95448.22;6237549;27;111953;-62
2024/01/26 06:27:33;;;;;;;3.53;1.90;;;;;;;20.77;28.34;95465.25;6227429;27;110427;-62
2024/01/26 06:30:37;;;;;;;2.63;2.00;;;;;;;20.75;28.29;95472.75;6236399;27;109256;-62
2024/01/26 06:33:40;;;;;;;4.87;2.00;;;;;;;20.71;28.23;95464.53;6236856;27;108997;-62
2024/01/26 06:36:43;;;;;;;3.63;2.00;;;;;;;20.71;28.54;95472.53;6237450;27;110132;-63
2024/01/26 06:39:46;;;;;;;2.90;1.80;;;;;;;20.70;28.29;95462.97;6226216;27;110267;-63
2024/01/26 06:42:49;;;;;;;3.27;1.90;;;;;;;20.76;28.23;95476.97;6237075;27;109698;-63
2024/01/26 06:45:54;;;;;;;4.27;1.97;;;;;;;20.75;28.17;95481.50;6237587;27;109897;-63
2024/01/26 06:48:57;;;;;;;2.83;1.90;;;;;;;20.76;28.29;95487.63;6237377;28;110116;-58
2024/01/26 06:52:00;;;;;;;2.73;1.80;;;;;;;20.75;28.27;95481.50;6226848;27;109013;-57
2024/01/26 06:55:03;;;;;;;4.80;2.30;;;;;;;20.76;28.34;95500.91;6236785;27;109880;-57
2024/01/26 06:58:06;;;;;;;3.70;1.87;;;;;;;21.06;27.84;95497.09;6236356;27;109368;-58
2024/01/26 07:01:11;;;;;;;3.63;2.00;;;;;;;21.17;28.00;95494.00;6228193;28;109708;-58
2024/01/26 07:04:14;;;;;;;2.97;1.97;;;;;;;21.39;27.87;95503.28;6235601;27;109162;-57
2024/01/26 07:07:17;;;;;;;2.90;2.00;;;;;;;21.46;27.33;95506.34;6236496;27;109147;-58
2024/01/26 07:10:20;;;;;;;4.00;1.77;;;;;;;21.57;27.13;95512.31;6236979;27;109878;-58
2024/01/26 07:13:23;;;;;;;3.30;1.97;;;;;;;21.58;27.46;95505.91;6225550;27;109590;-58
2024/01/26 07:16:28;;;;;;;3.40;2.20;;;;;;;21.46;27.48;95512.47;6237222;27;110171;-56
2024/01/26 07:19:31;;;;;;;3.90;2.00;;;;;;;21.49;27.25;95517.19;6236027;27;109397;-57
2024/01/26 07:22:34;;;;;;;3.53;2.37;;;;;;;21.42;27.27;95508.78;6236903;27;108959;-57
2024/01/26 07:25:37;;;;;;;3.77;2.27;;;;;;;21.42;27.29;95508.78;6225106;27;109145;-57
2024/01/26 07:28:40;;;;;;;3.70;2.27;;;;;;;21.30;27.59;95519.09;6236098;27;109361;-58
2024/01/26 07:31:46;;;;;;;4.53;2.40;;;;;;;21.26;27.14;95519.97;6235801;28;110057;-57
2024/01/26 07:34:49;;;;;;;4.33;1.87;;;;;;;21.23;27.54;95518.66;6231178;27;110079;-57
2024/01/26 07:37:52;;;;;;;4.00;2.40;;;;;;;21.21;27.71;95518.97;6230518;27;109162;-57
2024/01/26 07:40:56;;;;;;;5.40;3.40;;;;;;;21.19;27.23;95521.13;6236072;27;109300;-57
2024/01/26 07:44:00;;;;;;;3.23;2.33;;;;;;;21.18;27.41;95521.41;6236102;27;109312;-57
2024/01/26 07:47:04;;;;;;;4.00;2.37;;;;;;;21.16;27.61;95521.69;6226146;27;109775;-57
2024/01/26 07:50:08;;;;;;;4.53;2.63;;;;;;;21.16;27.57;95523.53;6236104;27;110114;-57
2024/01/26 07:53:11;;;;;;;3.60;2.23;;;;;;;21.28;27.23;95542.53;6236137;27;109141;-57
2024/01/26 07:56:14;;;;;;;5.90;2.33;;;;;;;21.54;26.90;95550.97;6236460;27;109199;-57
2024/01/26 07:59:17;;;;;;;4.67;2.10;;;;;;;21.66;26.95;95534.53;6224580;27;109227;-58
2024/01/26 08:02:22;;;;;;;5.03;2.57;;;;;;;21.75;26.93;95546.09;6235248;27;109145;-58
2024/01/26 08:05:26;;;;;;;4.77;2.20;;;;;;;21.76;26.77;95540.50;6235873;27;109079;-58
2024/01/26 08:08:29;;;;;;;3.17;2.10;;;;;;;21.79;26.79;95547.91;6235670;27;111360;-58
2024/01/26 08:11:33;;;;;;;3.27;2.10;;;;;;;21.81;26.74;95534.28;6226237;27;109164;-58
2024/01/26 08:14:36;;;;;;;2.60;1.80;;;;;;;21.84;26.55;95541.72;6235701;27;109055;-58
2024/01/26 08:17:41;;;;;;;3.90;2.50;;;;;;;21.85;26.62;95551.31;6234770;27;109208;-58
2024/01/26 08:20:45;;;;;;;3.10;1.90;;;;;;;21.84;26.58;95539.06;6225431;27;109385;-58
2024/01/26 08:23:48;;;;;;;4.20;2.27;;;;;;;21.82;26.90;95541.22;6235371;27;108951;-57
2024/01/26 08:26:51;;;;;;;3.80;2.57;;;;;;;21.84;27.19;95552.38;6235564;27;109033;-58
2024/01/26 08:29:54;;;;;;;3.37;2.60;;;;;;;21.84;26.66;95547.03;6235485;27;109117;-57
2024/01/26 08:32:59;;;;;;;3.27;2.23;;;;;;;21.80;27.06;95551.34;6224181;27;109564;-58
2024/01/26 08:36:02;;;;;;;3.17;2.00;;;;;;;21.80;27.00;95551.34;6235719;27;110606;-57
2024/01/26 08:39:11;;;;;;;2.90;2.07;;;;;;;21.77;27.17;95543.94;6235120;27;109162;-57
2024/01/26 08:42:15;;;;;;;3.20;1.90;;;;;;;21.79;27.05;95547.09;6235147;27;109083;-57
2024/01/26 08:45:18;;;;;;;4.00;2.13;;;;;;;21.75;27.34;95551.44;6224185;27;110137;-58
2024/01/26 08:48:23;;;;;;;2.97;2.00;;;;;;;21.70;27.39;95562.97;6235331;27;110033;-58
2024/01/26 08:51:26;;;;;;;3.10;1.90;;;;;;;21.67;27.74;95552.09;6235395;27;109801;-58
2024/01/26 08:54:29;;;;;;;5.50;2.23;;;;;;;21.66;27.13;95563.81;6229415;27;108959;-58
2024/01/26 08:57:32;;;;;;;3.00;1.70;;;;;;;21.64;27.66;95558.00;6229728;27;110463;-58
2024/01/26 09:00:35;;;;;;;3.37;2.00;;;;;;;21.61;27.29;95564.69;6234822;27;109538;-57
2024/01/26 09:03:40;;;;;;;3.93;2.40;;;;;;;21.59;27.40;95558.09;6233912;27;109132;-57
2024/01/26 09:06:44;;;;;;;2.83;2.30;;;;;;;21.56;27.50;95571.97;6225199;27;109802;-60
2024/01/26 09:09:53;;;;;;;3.40;2.50;;;;;;;21.55;27.77;95557.09;6234678;27;110087;-60
2024/01/26 09:12:56;;;;;;;3.80;2.43;;;;;;;21.47;27.67;95553.97;6234635;27;110328;-60
2024/01/26 09:15:59;;;;;;;3.37;2.43;;;;;;;21.48;27.59;95555.56;6234358;27;109213;-59
2024/01/26 09:19:04;;;;;;;3.90;2.70;;;;;;;21.40;27.93;95558.88;6223034;27;109345;-60
2024/01/26 09:22:08;;;;;;;2.70;2.40;;;;;;;21.34;27.89;95554.72;6234595;27;108906;-59
2024/01/26 09:25:11;;;;;;;3.50;2.97;;;;;;;21.30;28.08;95560.88;6234730;27;109114;-60
2024/01/26 09:28:14;;;;;;;3.37;2.53;;;;;;;21.30;28.04;95553.69;6229740;27;109899;-59
2024/01/26 09:31:17;;;;;;;4.10;2.87;;;;;;;21.33;27.71;95555.78;6228552;27;109752;-59
2024/01/26 09:34:22;;;;;;;3.47;2.63;;;;;;;21.30;28.18;95544.91;6233415;27;110109;-59
2024/01/26 09:37:26;;;;;;;3.20;2.53;;;;;;;21.28;28.17;95542.53;6233975;27;109462;-59
2024/01/26 09:40:30;;;;;;;4.07;2.67;;;;;;;21.29;27.77;95556.66;6223307;27;109293;-59
2024/01/26 09:43:33;;;;;;;3.83;3.17;;;;;;;21.26;28.19;95559.88;6234082;28;110580;-59
2024/01/26 09:46:36;;;;;;;3.03;2.83;;;;;;;21.23;28.23;95547.94;6234009;27;109012;-60
2024/01/26 09:49:46;;;;;;;4.43;3.40;;;;;;;21.28;27.86;95547.88;6234270;27;110120;-60
2024/01/26 09:52:50;;;;;;;3.53;3.23;;;;;;;21.27;28.41;95540.16;6223670;28;110257;-60
2024/01/26 09:55:53;;;;;;;4.50;3.60;;;;;;;21.32;27.74;95529.44;6234137;27;109247;-59
2024/01/26 09:58:56;;;;;;;5.00;4.17;;;;;;;21.31;27.93;95533.97;6233472;27;109066;-60
2024/01/26 10:02:01;;;;;;;5.90;4.20;;;;;;;21.32;27.55;95522.25;6234048;28;112462;-59
2024/01/26 10:05:06;;;;;;;4.53;3.87;;;;;;;21.31;27.87;95527.88;6223093;27;109191;-59
2024/01/26 10:08:10;;;;;;;5.07;4.57;;;;;;;21.33;28.18;95505.19;6234104;27;109335;-60
2024/01/26 10:11:13;;;;;;;6.53;4.50;;;;;;;21.36;27.75;95509.97;6233425;27;109420;-60
2024/01/26 10:14:22;;;;;;;5.57;4.70;;;;;;;21.35;27.97;95513.72;6224808;28;109577;-60
2024/01/26 10:17:25;;;;;;;6.73;4.13;;;;;;;21.35;27.62;95521.69;6233369;27;109540;-60
2024/01/26 10:20:30;;;;;;;5.60;4.40;;;;;;;21.36;28.14;95495.88;6233814;28;110322;-59
2024/01/26 10:23:33;;;;;;;4.70;4.30;;;;;;;21.36;27.95;95509.97;6233548;27;110079;-59
2024/01/26 10:26:37;;;;;;;4.60;4.20;;;;;;;21.38;28.10;95494.50;6223073;27;109211;-59
2024/01/26 10:29:40;;;;;;;5.33;4.83;;;;;;;21.38;28.18;95493.69;6233460;27;110090;-58
2024/01/26 10:32:45;;;;;;;4.90;4.50;;;;;;;21.39;27.93;95492.63;6233243;27;109154;-59
2024/01/26 10:35:57;;;;;;;4.47;4.07;;;;;;;21.38;27.89;95483.06;6232830;27;110054;-59
2024/01/26 10:39:04;;;;;;;4.40;4.00;;;;;;;21.37;28.19;95502.78;6223555;27;109581;-59
2024/01/26 10:42:09;;;;;;;4.93;4.43;;;;;;;21.40;28.00;95478.22;6238112;27;110199;-59
2024/01/26 10:45:14;;;;;;;5.90;5.40;;;;;;;21.38;27.92;95483.06;6237568;27;109620;-59
2024/01/26 10:48:17;;;;;;;6.33;5.80;;;;;;;21.38;27.77;95486.50;6229721;27;109076;-60
2024/01/26 10:51:24;;;;;;;5.83;5.33;;;;;;;21.41;28.05;95488.59;6236031;27;110231;-59
2024/01/26 10:54:28;;;;;;;7.00;6.30;;;;;;;21.44;28.14;95497.84;6237173;27;109813;-60
2024/01/26 10:57:31;;;;;;;6.77;6.17;;;;;;;21.45;27.69;95494.91;6236971;27;109208;-59
2024/01/26 11:00:35;;;;;;;7.20;6.53;;;;;;;21.45;28.09;95488.78;6226653;27;109629;-60
2024/01/26 11:03:38;;;;;;;7.37;6.40;;;;;;;21.46;27.63;95493.81;6237105;27;108896;-60
2024/01/26 11:06:43;;;;;;;8.27;7.50;;;;;;;21.46;27.69;95477.84;6236489;27;110105;-60
2024/01/26 11:09:49;;;;;;;9.00;7.90;;;;;;;21.48;28.02;95482.88;6236735;27;109081;-60
2024/01/26 11:13:01;;;;;;;18.27;8.20;;;;;;;21.49;27.78;95487.91;6226080;27;109251;-60
2024/01/26 11:16:05;;;;;;;9.23;7.70;;;;;;;21.50;28.15;95470.06;6236730;27;109355;-60
2024/01/26 11:19:09;;;;;;;10.07;7.60;;;;;;;21.54;27.91;95475.63;6236647;27;109374;-60
2024/01/26 11:22:14;;;;;;;12.67;8.33;;;;;;;21.56;27.72;95470.78;6231768;27;108786;-60
2024/01/26 11:25:21;;;;;;;9.47;7.63;;;;;;;21.54;28.12;95460.44;6231924;27;109084;-61
2024/01/26 11:28:27;;;;;;;9.13;7.70;;;;;;;21.56;27.61;95449.47;6236995;27;109290;-58
2024/01/26 11:31:31;;;;;;;11.37;7.93;;;;;;;21.55;27.81;95458.56;6236676;27;109198;-58
2024/01/26 11:34:34;;;;;;;9.83;7.70;;;;;;;21.60;27.90;95453.13;6225899;27;109167;-57
2024/01/26 11:37:40;;;;;;;8.53;6.77;;;;;;;21.62;27.87;95454.41;6235937;28;108757;-58
2024/01/26 11:40:44;;;;;;;8.87;6.10;;;;;;;21.66;28.02;95463.41;6236656;28;110185;-57
2024/01/26 11:43:52;;;;;;;8.50;7.50;;;;;;;21.69;27.88;95449.53;6236149;27;109073;-58
2024/01/26 11:46:56;;;;;;;8.43;7.57;;;;;;;21.70;28.07;95443.09;6226318;27;110026;-58
2024/01/26 11:50:00;;;;;;;7.43;6.63;;;;;;;21.73;27.77;95436.41;6236004;27;109865;-58
2024/01/26 11:53:05;;;;;;;7.73;6.43;;;;;;;21.76;27.67;95441.13;6235309;27;109170;-58
2024/01/26 11:56:08;;;;;;;8.57;6.30;;;;;;;21.77;27.83;95437.38;6231613;28;110421;-58
2024/01/26 11:59:12;;;;;;;8.47;7.47;;;;;;;21.78;27.51;95428.31;6230760;27;110104;-59
2024/01/26 12:02:15;;;;;;;7.90;6.80;;;;;;;21.80;28.07;95434.13;6235715;27;109471;-58
2024/01/26 12:05:19;;;;;;;9.90;7.30;;;;;;;21.86;27.62;95440.22;6236236;27;110025;-57
2024/01/26 12:08:24;;;;;;;8.77;7.40;;;;;;;21.86;27.54;95451.66;6225270;27;109210;-57
2024/01/26 12:11:28;;;;;;;9.20;8.20;;;;;;;21.89;27.75;95435.06;6235645;27;109141;-58
2024/01/26 12:14:31;;;;;;;9.20;7.30;;;;;;;21.88;27.66;95436.16;6235554;27;109431;-57
2024/01/26 12:17:35;;;;;;;12.60;8.13;;;;;;;21.90;27.43;95436.66;6235732;27;108665;-57
2024/01/26 12:20:39;;;;;;;12.33;8.27;;;;;;;21.92;27.43;95434.47;6224649;27;109283;-57
2024/01/26 12:23:44;;;;;;;7.90;7.03;;;;;;;21.92;27.72;95429.16;6235413;27;109103;-57
2024/01/26 12:26:47;;;;;;;11.23;7.30;;;;;;;21.92;27.79;95431.81;6235704;27;110521;-57
2024/01/26 12:29:51;;;;;;;9.97;7.10;;;;;;;21.94;27.71;95429.66;6233349;27;109224;-60
2024/01/26 12:32:54;;;;;;;7.90;7.10;;;;;;;21.98;27.31;95432.50;6230233;27;109916;-58
2024/01/26 12:35:59;;;;;;;12.30;7.10;;;;;;;21.98;27.94;95440.50;6235525;27;110012;-57
2024/01/26 12:39:04;;;;;;;10.80;7.77;;;;;;;21.97;27.77;95439.72;6234674;27;109738;-56
2024/01/26 12:42:07;;;;;;;11.93;8.10;;;;;;;22.01;27.73;95437.25;6225794;27;110068;-57
2024/01/26 12:45:10;;;;;;;11.90;7.40;;;;;;;21.98;27.51;95435.16;6234598;27;109293;-57
2024/01/26 12:48:13;;;;;;;11.30;7.57;;;;;;;22.03;27.52;95441.22;6235200;27;109252;-59
2024/01/26 12:51:18;;;;;;;12.33;7.13;;;;;;;22.03;27.76;95435.88;6235536;28;112624;-59
2024/01/26 12:54:23;;;;;;;14.57;6.70;;;;;;;22.04;27.24;95434.00;6225084;27;109391;-56
2024/01/26 12:57:26;;;;;;;9.60;7.00;;;;;;;22.01;27.23;95424.72;6234236;27;109482;-57
2024/01/26 13:00:30;;;;;;;14.27;7.03;;;;;;;22.03;27.40;95427.88;6235301;28;110459;-58
2024/01/26 13:03:34;;;;;;;10.13;6.23;;;;;;;22.04;27.32;95432.13;6234512;27;109692;-57
2024/01/26 13:06:38;;;;;;;11.13;6.60;;;;;;;22.04;27.74;95437.47;6224063;27;108894;-57
2024/01/26 13:09:42;;;;;;;9.47;6.63;;;;;;;22.00;27.58;95423.13;6233754;27;109033;-58
2024/01/26 13:12:46;;;;;;;10.97;7.07;;;;;;;22.01;27.66;95431.91;6234398;27;109119;-57
2024/01/26 13:15:49;;;;;;;8.83;5.90;;;;;;;22.01;27.75;95421.25;6229371;27;109041;-58
2024/01/26 13:18:52;;;;;;;11.50;6.33;;;;;;;21.97;27.41;95421.06;6229238;27;109279;-59
2024/01/26 13:21:56;;;;;;;7.83;5.90;;;;;;;21.98;27.70;95414.63;6234494;27;109275;-59
2024/01/26 13:25:02;;;;;;;9.60;5.97;;;;;;;21.99;27.96;95429.53;6234311;27;109135;-59
2024/01/26 13:28:05;;;;;;;6.53;5.53;;;;;;;21.96;27.38;95405.38;6223469;27;109283;-56
2024/01/26 13:31:08;;;;;;;6.93;5.20;;;;;;;21.96;27.57;95414.16;6234848;28;110151;-58
2024/01/26 13:34:12;;;;;;;7.83;5.30;;;;;;;21.93;27.59;95425.41;6234037;27;109492;-58
2024/01/26 13:37:15;;;;;;;8.07;5.30;;;;;;;21.95;28.01;95433.88;6233862;27;109235;-58
2024/01/26 13:40:20;;;;;;;8.83;4.80;;;;;;;21.96;28.06;95426.69;6222447;27;109258;-58
2024/01/26 13:43:25;;;;;;;8.40;5.00;;;;;;;21.92;28.03;95423.03;6234058;27;110118;-58
2024/01/26 13:46:28;;;;;;;6.30;5.17;;;;;;;21.91;27.88;95435.56;6233683;27;109233;-57
2024/01/26 13:49:31;;;;;;;8.07;5.40;;;;;;;21.91;27.46;95432.13;6230836;27;109295;-60
2024/01/26 13:52:35;;;;;;;5.73;5.00;;;;;;;21.87;28.08;95431.13;6228747;27;111213;-60
2024/01/26 13:55:39;;;;;;;7.00;4.90;;;;;;;21.87;27.90;95433.78;6233982;27;110206;-59
2024/01/26 13:58:42;;;;;;;7.97;4.90;;;;;;;21.87;27.56;95433.78;6233095;27;109184;-61
2024/01/26 14:01:45;;;;;;;6.00;4.87;;;;;;;21.87;28.05;95434.59;6224391;27;109239;-60
2024/01/26 14:04:48;;;;;;;7.03;4.60;;;;;;;21.86;28.05;95443.66;6233348;27;109068;-60
2024/01/26 14:07:52;;;;;;;7.57;5.00;;;;;;;21.86;27.66;95430.34;6233751;27;109269;-60
2024/01/26 14:10:57;;;;;;;4.67;4.17;;;;;;;21.88;28.31;95438.03;6215049;28;109364;-60
2024/01/26 14:14:00;;;;;;;6.17;4.57;;;;;;;21.86;27.76;95438.34;6223147;27;110053;-60